Kastav — 9AA6417 — position and weather

sailwx.info

Track history (hours):
 
Tides and Currents Weather Stations Pressure Air Temp Water Temp Dewpoint Dewpoint Depression Visibility Wind Speed Wind Dir Waves Ship Positions

Kastav

Last reported at 2017-Jan-13 05:33 UTC. Time now 2017-Jan-20 05:54 UTC.
Position N 40°28' W 073°50'.

Length 195 m; draft 9.7 m.

Type: Tanker. MMSI: 238257000.

Date/timePositionNaut miles runAvg speedWind from/ knotsBaromVisibWave heightAir tempDewpointWater temp
2017-Jan-13 05:33N 40°28' W 073°50'1010.4
2017-Jan-13 04:33N 40°33' W 074°02'6 5.8
2017-Jan-13 03:33N 40°38' W 074°04'0 0.2
2017-Jan-13 02:33N 40°38' W 074°04'0 0.1
2017-Jan-13 01:33N 40°39' W 074°04'6 5.6
2017-Jan-13 00:33N 40°39' W 074°11'2 2.3
2017-Jan-12 23:31N 40°36' W 074°12'0 0.0
2017-Jan-12 22:31N 40°36' W 074°12'0 0.0
2017-Jan-12 21:31N 40°36' W 074°12'0 0.0
2017-Jan-12 20:31N 40°36' W 074°12'0 0.0
2017-Jan-12 19:22N 40°36' W 074°12'0 0.0
2017-Jan-12 18:28N 40°36' W 074°12'0 0.0
2017-Jan-12 17:31N 40°36' W 074°12'0 0.0
2017-Jan-12 16:28N 40°36' W 074°12'0 0.0
2017-Jan-12 15:28N 40°36' W 074°12'0 0.0
2017-Jan-12 14:31N 40°36' W 074°12'0 0.0
2017-Jan-12 13:31N 40°36' W 074°12'0 0.0
2017-Jan-12 12:31N 40°36' W 074°12'0 0.0
2017-Jan-12 11:31N 40°36' W 074°12'0 0.0
2017-Jan-12 10:31N 40°36' W 074°12'0 0.0
2017-Jan-12 09:31N 40°36' W 074°12'0 0.0
2017-Jan-12 08:31N 40°36' W 074°12'0 0.0
2017-Jan-12 07:31N 40°36' W 074°12'0 0.0
2017-Jan-12 06:31N 40°36' W 074°12'0 0.0
2017-Jan-12 05:31N 40°36' W 074°12'0 0.0
2017-Jan-12 04:31N 40°36' W 074°12'0 0.0
2017-Jan-12 03:31N 40°36' W 074°12'0 0.0
2017-Jan-12 02:31N 40°36' W 074°12'0 0.0
2017-Jan-12 01:31N 40°36' W 074°12'0 0.0
2017-Jan-12 00:31N 40°36' W 074°12'0 0.0
2017-Jan-11 23:31N 40°36' W 074°12'0 0.0
2017-Jan-11 22:31N 40°36' W 074°12'0 0.0
2017-Jan-11 21:31N 40°36' W 074°12'0 0.0
2017-Jan-11 20:31N 40°36' W 074°12'0 0.0
2017-Jan-11 19:33N 40°36' W 074°12'3 3.0
2017-Jan-11 18:32N 40°34' W 074°13'4 3.4
2017-Jan-11 17:22N 40°30' W 074°14'8 9.3
2017-Jan-11 16:33N 40°29' W 074°04'8 8.1
2017-Jan-11 15:33N 40°26' W 073°54'9 7.6
2017-Jan-11 14:26N 40°20' W 073°46'4 3.8
2017-Jan-11 13:30N 40°18' W 073°43'2 1.9
2017-Jan-11 12:33N 40°19' W 073°44'3 2.9
2017-Jan-11 11:30N 40°16' W 073°46'  
Track history (hours):
 
Tides and Currents Weather Stations Pressure Air Temp Water Temp Dewpoint Dewpoint Depression Visibility Wind Speed Wind Dir Waves Ship Positions

Kastav

Last reported at 2017-Jan-13 05:33 UTC. Time now 2017-Jan-20 05:54 UTC.
Position N 40°28' W 073°50'.

Length 195 m; draft 9.7 m.

Type: Tanker. MMSI: 238257000.

Date/timePositionNaut miles runAvg speedWind from/ knotsBaromVisibWave heightAir tempDewpointWater temp
2017-Jan-13 05:33N 40°28' W 073°50'1010.4
2017-Jan-13 04:33N 40°33' W 074°02'6 5.8
2017-Jan-13 03:33N 40°38' W 074°04'0 0.2
2017-Jan-13 02:33N 40°38' W 074°04'0 0.1
2017-Jan-13 01:33N 40°39' W 074°04'6 5.6
2017-Jan-13 00:33N 40°39' W 074°11'2 2.3
2017-Jan-12 23:31N 40°36' W 074°12'0 0.0
2017-Jan-12 22:31N 40°36' W 074°12'0 0.0
2017-Jan-12 21:31N 40°36' W 074°12'0 0.0
2017-Jan-12 20:31N 40°36' W 074°12'0 0.0
2017-Jan-12 19:22N 40°36' W 074°12'0 0.0
2017-Jan-12 18:28N 40°36' W 074°12'0 0.0
2017-Jan-12 17:31N 40°36' W 074°12'0 0.0
2017-Jan-12 16:28N 40°36' W 074°12'0 0.0
2017-Jan-12 15:28N 40°36' W 074°12'0 0.0
2017-Jan-12 14:31N 40°36' W 074°12'0 0.0
2017-Jan-12 13:31N 40°36' W 074°12'0 0.0
2017-Jan-12 12:31N 40°36' W 074°12'0 0.0
2017-Jan-12 11:31N 40°36' W 074°12'0 0.0
2017-Jan-12 10:31N 40°36' W 074°12'0 0.0
2017-Jan-12 09:31N 40°36' W 074°12'0 0.0
2017-Jan-12 08:31N 40°36' W 074°12'0 0.0
2017-Jan-12 07:31N 40°36' W 074°12'0 0.0
2017-Jan-12 06:31N 40°36' W 074°12'0 0.0
2017-Jan-12 05:31N 40°36' W 074°12'0 0.0
2017-Jan-12 04:31N 40°36' W 074°12'0 0.0
2017-Jan-12 03:31N 40°36' W 074°12'0 0.0
2017-Jan-12 02:31N 40°36' W 074°12'0 0.0
2017-Jan-12 01:31N 40°36' W 074°12'0 0.0
2017-Jan-12 00:31N 40°36' W 074°12'0 0.0
2017-Jan-11 23:31N 40°36' W 074°12'0 0.0
2017-Jan-11 22:31N 40°36' W 074°12'0 0.0
2017-Jan-11 21:31N 40°36' W 074°12'0 0.0
2017-Jan-11 20:31N 40°36' W 074°12'0 0.0
2017-Jan-11 19:33N 40°36' W 074°12'3 3.0
2017-Jan-11 18:32N 40°34' W 074°13'4 3.4
2017-Jan-11 17:22N 40°30' W 074°14'8 9.3
2017-Jan-11 16:33N 40°29' W 074°04'8 8.1
2017-Jan-11 15:33N 40°26' W 073°54'9 7.6
2017-Jan-11 14:26N 40°20' W 073°46'4 3.8
2017-Jan-11 13:30N 40°18' W 073°43'2 1.9
2017-Jan-11 12:33N 40°19' W 073°44'3 2.9
2017-Jan-11 11:30N 40°16' W 073°46'  

Dump ship's entire track history